sensor_id;sensor_type;location;lat;lon;timestamp;P1;durP1;ratioP1;P2;durP2;ratioP2
66663;SDS011;59683;51.428;-1.994;2023-06-26T00:00:18;12.23;;;2.67;;
66663;SDS011;59683;51.428;-1.994;2023-06-26T00:02:44;13.77;;;2.97;;
66663;SDS011;59683;51.428;-1.994;2023-06-26T00:05:09;11.53;;;3.00;;
66663;SDS011;59683;51.428;-1.994;2023-06-26T00:07:35;20.53;;;3.03;;
66663;SDS011;59683;51.428;-1.994;2023-06-26T00:10:02;7.70;;;3.17;;
66663;SDS011;59683;51.428;-1.994;2023-06-26T00:12:28;8.73;;;2.38;;
66663;SDS011;59683;51.428;-1.994;2023-06-26T00:14:54;9.63;;;2.50;;
66663;SDS011;59683;51.428;-1.994;2023-06-26T00:17:20;7.90;;;3.20;;
66663;SDS011;59683;51.428;-1.994;2023-06-26T00:19:45;17.73;;;3.97;;
66663;SDS011;59683;51.428;-1.994;2023-06-26T00:22:10;14.03;;;3.13;;
66663;SDS011;59683;51.428;-1.994;2023-06-26T00:24:36;12.57;;;3.67;;
66663;SDS011;59683;51.428;-1.994;2023-06-26T00:27:01;14.50;;;4.37;;
66663;SDS011;59683;51.428;-1.994;2023-06-26T00:29:27;17.37;;;5.30;;
66663;SDS011;59683;51.428;-1.994;2023-06-26T00:31:52;7.83;;;3.07;;
66663;SDS011;59683;51.428;-1.994;2023-06-26T00:34:17;15.17;;;4.20;;
66663;SDS011;59683;51.428;-1.994;2023-06-26T00:36:44;8.63;;;3.97;;
66663;SDS011;59683;51.428;-1.994;2023-06-26T00:39:10;10.47;;;2.97;;
66663;SDS011;59683;51.428;-1.994;2023-06-26T00:41:36;14.50;;;3.90;;
66663;SDS011;59683;51.428;-1.994;2023-06-26T00:44:02;12.27;;;4.70;;
66663;SDS011;59683;51.428;-1.994;2023-06-26T00:46:28;14.50;;;4.25;;
66663;SDS011;59683;51.428;-1.994;2023-06-26T00:48:54;9.77;;;3.87;;
66663;SDS011;59683;51.428;-1.994;2023-06-26T00:51:20;13.63;;;3.90;;
66663;SDS011;59683;51.428;-1.994;2023-06-26T00:53:46;12.87;;;4.50;;
66663;SDS011;59683;51.428;-1.994;2023-06-26T00:56:13;18.65;;;5.15;;
66663;SDS011;59683;51.428;-1.994;2023-06-26T00:58:40;17.58;;;4.57;;
66663;SDS011;59683;51.428;-1.994;2023-06-26T01:01:05;11.97;;;4.23;;
66663;SDS011;59683;51.428;-1.994;2023-06-26T01:03:33;16.88;;;4.50;;
66663;SDS011;59683;51.428;-1.994;2023-06-26T01:05:59;17.17;;;4.33;;
66663;SDS011;59683;51.428;-1.994;2023-06-26T01:08:25;15.10;;;4.95;;
66663;SDS011;59683;51.428;-1.994;2023-06-26T01:10:52;15.27;;;5.88;;
66663;SDS011;59683;51.428;-1.994;2023-06-26T01:13:18;14.57;;;4.23;;
66663;SDS011;59683;51.428;-1.994;2023-06-26T01:15:44;14.10;;;4.32;;
66663;SDS011;59683;51.428;-1.994;2023-06-26T01:18:11;11.25;;;4.00;;
66663;SDS011;59683;51.428;-1.994;2023-06-26T01:20:37;15.73;;;4.30;;
66663;SDS011;59683;51.428;-1.994;2023-06-26T01:28:39;10.50;;;4.28;;
66663;SDS011;59683;51.428;-1.994;2023-06-26T01:31:07;12.43;;;3.65;;
66663;SDS011;59683;51.428;-1.994;2023-06-26T01:33:33;13.75;;;3.70;;
66663;SDS011;59683;51.428;-1.994;2023-06-26T01:35:59;15.35;;;3.30;;
66663;SDS011;59683;51.428;-1.994;2023-06-26T01:38:25;14.90;;;3.33;;
66663;SDS011;59683;51.428;-1.994;2023-06-26T01:40:53;14.52;;;3.38;;
66663;SDS011;59683;51.428;-1.994;2023-06-26T01:46:36;19.35;;;3.80;;
66663;SDS011;59683;51.428;-1.994;2023-06-26T01:49:15;10.57;;;2.90;;
66663;SDS011;59683;51.428;-1.994;2023-06-26T01:52:00;9.60;;;2.55;;
66663;SDS011;59683;51.428;-1.994;2023-06-26T01:57:37;13.80;;;2.35;;
66663;SDS011;59683;51.428;-1.994;2023-06-26T02:00:04;10.98;;;2.58;;
66663;SDS011;59683;51.428;-1.994;2023-06-26T02:02:31;13.55;;;3.20;;
66663;SDS011;59683;51.428;-1.994;2023-06-26T02:04:56;12.43;;;2.00;;
66663;SDS011;59683;51.428;-1.994;2023-06-26T02:07:22;11.10;;;2.07;;
66663;SDS011;59683;51.428;-1.994;2023-06-26T02:09:47;16.17;;;3.57;;
66663;SDS011;59683;51.428;-1.994;2023-06-26T02:12:13;11.87;;;3.50;;
66663;SDS011;59683;51.428;-1.994;2023-06-26T02:14:38;12.07;;;2.10;;
66663;SDS011;59683;51.428;-1.994;2023-06-26T02:17:04;12.67;;;2.03;;
66663;SDS011;59683;51.428;-1.994;2023-06-26T02:19:29;9.23;;;2.93;;
66663;SDS011;59683;51.428;-1.994;2023-06-26T02:21:55;12.80;;;2.83;;
66663;SDS011;59683;51.428;-1.994;2023-06-26T02:24:20;9.60;;;3.27;;
66663;SDS011;59683;51.428;-1.994;2023-06-26T02:26:46;10.23;;;2.60;;
66663;SDS011;59683;51.428;-1.994;2023-06-26T02:29:11;10.17;;;2.70;;
66663;SDS011;59683;51.428;-1.994;2023-06-26T02:31:37;16.63;;;3.30;;
66663;SDS011;59683;51.428;-1.994;2023-06-26T02:34:03;14.23;;;3.03;;
66663;SDS011;59683;51.428;-1.994;2023-06-26T02:36:29;13.52;;;3.03;;
66663;SDS011;59683;51.428;-1.994;2023-06-26T02:38:55;15.87;;;3.73;;
66663;SDS011;59683;51.428;-1.994;2023-06-26T02:41:20;9.80;;;2.60;;
66663;SDS011;59683;51.428;-1.994;2023-06-26T02:43:46;18.67;;;3.30;;
66663;SDS011;59683;51.428;-1.994;2023-06-26T02:46:11;15.00;;;2.40;;
66663;SDS011;59683;51.428;-1.994;2023-06-26T02:48:37;11.07;;;3.07;;
66663;SDS011;59683;51.428;-1.994;2023-06-26T02:51:02;11.10;;;2.60;;
66663;SDS011;59683;51.428;-1.994;2023-06-26T02:53:27;8.23;;;2.27;;
66663;SDS011;59683;51.428;-1.994;2023-06-26T02:55:53;12.60;;;3.13;;
66663;SDS011;59683;51.428;-1.994;2023-06-26T02:58:18;16.23;;;2.70;;
66663;SDS011;59683;51.428;-1.994;2023-06-26T03:00:44;15.93;;;3.00;;
66663;SDS011;59683;51.428;-1.994;2023-06-26T03:03:10;16.20;;;2.85;;
66663;SDS011;59683;51.428;-1.994;2023-06-26T03:05:35;13.07;;;2.83;;
66663;SDS011;59683;51.428;-1.994;2023-06-26T03:08:01;19.23;;;3.37;;
66663;SDS011;59683;51.428;-1.994;2023-06-26T03:10:28;11.65;;;2.60;;
66663;SDS011;59683;51.428;-1.994;2023-06-26T03:12:53;18.53;;;2.97;;
66663;SDS011;59683;51.428;-1.994;2023-06-26T03:15:18;15.17;;;2.80;;
66663;SDS011;59683;51.428;-1.994;2023-06-26T03:17:44;16.13;;;3.77;;
66663;SDS011;59683;51.428;-1.994;2023-06-26T03:20:09;14.60;;;2.90;;
66663;SDS011;59683;51.428;-1.994;2023-06-26T03:22:35;19.30;;;3.27;;
66663;SDS011;59683;51.428;-1.994;2023-06-26T03:25:01;13.30;;;3.10;;
66663;SDS011;59683;51.428;-1.994;2023-06-26T03:27:28;15.38;;;3.15;;
66663;SDS011;59683;51.428;-1.994;2023-06-26T03:29:53;14.77;;;3.47;;
66663;SDS011;59683;51.428;-1.994;2023-06-26T03:32:18;14.83;;;2.77;;
66663;SDS011;59683;51.428;-1.994;2023-06-26T03:34:44;14.13;;;2.93;;
66663;SDS011;59683;51.428;-1.994;2023-06-26T03:37:09;13.17;;;3.00;;
66663;SDS011;59683;51.428;-1.994;2023-06-26T03:39:35;17.70;;;2.40;;
66663;SDS011;59683;51.428;-1.994;2023-06-26T03:42:00;18.40;;;2.90;;
66663;SDS011;59683;51.428;-1.994;2023-06-26T03:44:26;19.70;;;3.90;;
66663;SDS011;59683;51.428;-1.994;2023-06-26T03:46:53;20.20;;;3.58;;
66663;SDS011;59683;51.428;-1.994;2023-06-26T03:49:18;20.53;;;4.13;;
66663;SDS011;59683;51.428;-1.994;2023-06-26T03:51:44;17.17;;;3.27;;
66663;SDS011;59683;51.428;-1.994;2023-06-26T03:54:10;20.37;;;4.40;;
66663;SDS011;59683;51.428;-1.994;2023-06-26T03:56:35;15.50;;;3.67;;
66663;SDS011;59683;51.428;-1.994;2023-06-26T03:59:01;21.63;;;3.63;;
66663;SDS011;59683;51.428;-1.994;2023-06-26T04:01:26;9.53;;;2.53;;
66663;SDS011;59683;51.428;-1.994;2023-06-26T04:03:52;12.17;;;3.23;;
66663;SDS011;59683;51.428;-1.994;2023-06-26T04:06:18;19.37;;;3.60;;
66663;SDS011;59683;51.428;-1.994;2023-06-26T04:08:43;29.63;;;5.60;;
66663;SDS011;59683;51.428;-1.994;2023-06-26T04:11:09;14.97;;;3.23;;
66663;SDS011;59683;51.428;-1.994;2023-06-26T04:13:34;18.83;;;5.57;;
66663;SDS011;59683;51.428;-1.994;2023-06-26T04:15:59;25.47;;;5.03;;
66663;SDS011;59683;51.428;-1.994;2023-06-26T04:18:25;23.93;;;3.93;;
66663;SDS011;59683;51.428;-1.994;2023-06-26T04:21:04;16.90;;;4.07;;
66663;SDS011;59683;51.428;-1.994;2023-06-26T04:23:34;12.38;;;2.90;;
66663;SDS011;59683;51.428;-1.994;2023-06-26T04:26:00;16.73;;;4.13;;
66663;SDS011;59683;51.428;-1.994;2023-06-26T04:28:27;30.77;;;7.13;;
66663;SDS011;59683;51.428;-1.994;2023-06-26T04:30:53;19.92;;;4.50;;
66663;SDS011;59683;51.428;-1.994;2023-06-26T04:33:19;23.07;;;3.77;;
66663;SDS011;59683;51.428;-1.994;2023-06-26T04:35:44;12.87;;;2.90;;
66663;SDS011;59683;51.428;-1.994;2023-06-26T04:38:14;22.08;;;4.32;;
66663;SDS011;59683;51.428;-1.994;2023-06-26T04:40:40;14.35;;;2.88;;
66663;SDS011;59683;51.428;-1.994;2023-06-26T04:43:06;18.53;;;3.30;;
66663;SDS011;59683;51.428;-1.994;2023-06-26T04:45:31;24.23;;;3.40;;
66663;SDS011;59683;51.428;-1.994;2023-06-26T04:47:56;15.27;;;3.70;;
66663;SDS011;59683;51.428;-1.994;2023-06-26T04:50:22;17.08;;;3.63;;
66663;SDS011;59683;51.428;-1.994;2023-06-26T04:52:48;14.63;;;3.53;;
66663;SDS011;59683;51.428;-1.994;2023-06-26T04:55:13;13.07;;;3.83;;
66663;SDS011;59683;51.428;-1.994;2023-06-26T04:57:38;19.40;;;3.70;;
66663;SDS011;59683;51.428;-1.994;2023-06-26T05:00:04;17.57;;;3.47;;
66663;SDS011;59683;51.428;-1.994;2023-06-26T05:05:00;11.83;;;2.70;;
66663;SDS011;59683;51.428;-1.994;2023-06-26T05:07:25;10.40;;;3.27;;
66663;SDS011;59683;51.428;-1.994;2023-06-26T05:09:50;14.87;;;3.33;;
66663;SDS011;59683;51.428;-1.994;2023-06-26T05:12:16;15.83;;;2.83;;
66663;SDS011;59683;51.428;-1.994;2023-06-26T05:14:41;16.03;;;3.40;;
66663;SDS011;59683;51.428;-1.994;2023-06-26T05:17:06;13.43;;;3.33;;
66663;SDS011;59683;51.428;-1.994;2023-06-26T05:19:32;16.67;;;3.50;;
66663;SDS011;59683;51.428;-1.994;2023-06-26T05:21:57;13.00;;;3.07;;
66663;SDS011;59683;51.428;-1.994;2023-06-26T05:24:26;13.23;;;3.28;;
66663;SDS011;59683;51.428;-1.994;2023-06-26T05:26:52;13.25;;;2.85;;
66663;SDS011;59683;51.428;-1.994;2023-06-26T05:29:19;14.13;;;2.50;;
66663;SDS011;59683;51.428;-1.994;2023-06-26T05:31:45;17.30;;;2.73;;
66663;SDS011;59683;51.428;-1.994;2023-06-26T05:34:13;13.23;;;2.70;;
66663;SDS011;59683;51.428;-1.994;2023-06-26T05:36:39;11.27;;;2.50;;
66663;SDS011;59683;51.428;-1.994;2023-06-26T11:46:40;2.42;;;0.50;;
66663;SDS011;59683;51.428;-1.994;2023-06-26T11:49:06;7.03;;;0.82;;
66663;SDS011;59683;51.428;-1.994;2023-06-26T11:51:32;3.38;;;0.88;;
66663;SDS011;59683;51.428;-1.994;2023-06-26T11:54:00;3.38;;;0.60;;
66663;SDS011;59683;51.428;-1.994;2023-06-26T11:56:28;6.55;;;0.90;;
66663;SDS011;59683;51.428;-1.994;2023-06-26T12:01:36;3.08;;;0.70;;
66663;SDS011;59683;51.428;-1.994;2023-06-26T12:04:03;8.70;;;0.80;;
66663;SDS011;59683;51.428;-1.994;2023-06-26T12:06:30;5.93;;;0.82;;
66663;SDS011;59683;51.428;-1.994;2023-06-26T12:08:58;4.65;;;0.70;;
66663;SDS011;59683;51.428;-1.994;2023-06-26T12:11:25;4.93;;;0.95;;
66663;SDS011;59683;51.428;-1.994;2023-06-26T12:13:53;3.17;;;0.60;;
66663;SDS011;59683;51.428;-1.994;2023-06-26T12:16:19;3.65;;;0.73;;
66663;SDS011;59683;51.428;-1.994;2023-06-26T12:18:45;4.50;;;0.80;;
66663;SDS011;59683;51.428;-1.994;2023-06-26T12:24:09;6.30;;;1.15;;
66663;SDS011;59683;51.428;-1.994;2023-06-26T12:26:38;4.10;;;0.80;;
66663;SDS011;59683;51.428;-1.994;2023-06-26T12:29:06;4.20;;;0.75;;
66663;SDS011;59683;51.428;-1.994;2023-06-26T12:31:33;4.03;;;0.75;;
66663;SDS011;59683;51.428;-1.994;2023-06-26T12:34:00;6.25;;;0.50;;
66663;SDS011;59683;51.428;-1.994;2023-06-26T12:36:25;4.20;;;0.68;;
66663;SDS011;59683;51.428;-1.994;2023-06-26T12:38:52;3.30;;;0.60;;
66663;SDS011;59683;51.428;-1.994;2023-06-26T12:41:18;3.05;;;0.60;;
66663;SDS011;59683;51.428;-1.994;2023-06-26T12:43:45;4.50;;;0.70;;
66663;SDS011;59683;51.428;-1.994;2023-06-26T12:46:11;5.10;;;0.95;;
66663;SDS011;59683;51.428;-1.994;2023-06-26T12:48:40;5.30;;;1.00;;
66663;SDS011;59683;51.428;-1.994;2023-06-26T12:51:17;2.05;;;0.50;;
66663;SDS011;59683;51.428;-1.994;2023-06-26T12:53:42;5.68;;;0.85;;
66663;SDS011;59683;51.428;-1.994;2023-06-26T12:56:09;9.68;;;1.00;;
66663;SDS011;59683;51.428;-1.994;2023-06-26T12:58:36;10.55;;;1.20;;
66663;SDS011;59683;51.428;-1.994;2023-06-26T13:01:03;6.95;;;0.85;;
66663;SDS011;59683;51.428;-1.994;2023-06-26T13:03:29;3.55;;;0.80;;
66663;SDS011;59683;51.428;-1.994;2023-06-26T13:05:55;5.05;;;0.80;;
66663;SDS011;59683;51.428;-1.994;2023-06-26T13:08:20;8.43;;;0.80;;
66663;SDS011;59683;51.428;-1.994;2023-06-26T13:10:45;6.45;;;1.10;;
66663;SDS011;59683;51.428;-1.994;2023-06-26T13:13:11;3.42;;;0.68;;
66663;SDS011;59683;51.428;-1.994;2023-06-26T13:15:37;4.25;;;0.95;;
66663;SDS011;59683;51.428;-1.994;2023-06-26T13:18:02;3.30;;;0.60;;
66663;SDS011;59683;51.428;-1.994;2023-06-26T13:20:28;4.80;;;0.95;;
66663;SDS011;59683;51.428;-1.994;2023-06-26T13:22:54;3.15;;;0.80;;
66663;SDS011;59683;51.428;-1.994;2023-06-26T13:25:21;5.70;;;1.00;;
66663;SDS011;59683;51.428;-1.994;2023-06-26T13:27:47;2.72;;;0.63;;
66663;SDS011;59683;51.428;-1.994;2023-06-26T13:30:13;5.53;;;0.65;;
66663;SDS011;59683;51.428;-1.994;2023-06-26T13:32:40;5.22;;;1.23;;
66663;SDS011;59683;51.428;-1.994;2023-06-26T13:35:05;5.65;;;0.90;;
66663;SDS011;59683;51.428;-1.994;2023-06-26T13:37:31;5.38;;;0.90;;
66663;SDS011;59683;51.428;-1.994;2023-06-26T13:39:59;5.38;;;0.88;;
66663;SDS011;59683;51.428;-1.994;2023-06-26T13:42:24;4.43;;;0.77;;
66663;SDS011;59683;51.428;-1.994;2023-06-26T13:44:50;4.07;;;0.98;;
66663;SDS011;59683;51.428;-1.994;2023-06-26T13:47:15;6.85;;;1.63;;
66663;SDS011;59683;51.428;-1.994;2023-06-26T13:49:41;4.20;;;0.80;;
66663;SDS011;59683;51.428;-1.994;2023-06-26T13:52:06;5.13;;;0.80;;
66663;SDS011;59683;51.428;-1.994;2023-06-26T13:54:37;2.80;;;0.70;;
66663;SDS011;59683;51.428;-1.994;2023-06-26T13:57:05;5.32;;;0.65;;
66663;SDS011;59683;51.428;-1.994;2023-06-26T13:59:31;4.75;;;0.60;;
66663;SDS011;59683;51.428;-1.994;2023-06-26T14:01:57;3.17;;;0.50;;
66663;SDS011;59683;51.428;-1.994;2023-06-26T14:04:23;4.03;;;0.75;;
66663;SDS011;59683;51.428;-1.994;2023-06-26T14:06:49;3.40;;;0.90;;
66663;SDS011;59683;51.428;-1.994;2023-06-26T14:09:15;6.15;;;1.27;;
66663;SDS011;59683;51.428;-1.994;2023-06-26T14:11:40;4.97;;;0.95;;
66663;SDS011;59683;51.428;-1.994;2023-06-26T14:14:06;4.22;;;0.45;;
66663;SDS011;59683;51.428;-1.994;2023-06-26T14:16:32;3.08;;;0.70;;
66663;SDS011;59683;51.428;-1.994;2023-06-26T14:18:58;3.38;;;0.80;;
66663;SDS011;59683;51.428;-1.994;2023-06-26T14:21:23;6.75;;;1.63;;
66663;SDS011;59683;51.428;-1.994;2023-06-26T14:23:49;3.65;;;1.05;;
66663;SDS011;59683;51.428;-1.994;2023-06-26T14:26:14;4.50;;;0.70;;
66663;SDS011;59683;51.428;-1.994;2023-06-26T14:28:40;6.00;;;1.02;;
66663;SDS011;59683;51.428;-1.994;2023-06-26T14:31:05;8.35;;;0.90;;
66663;SDS011;59683;51.428;-1.994;2023-06-26T14:33:31;6.80;;;0.93;;
66663;SDS011;59683;51.428;-1.994;2023-06-26T14:35:56;3.63;;;0.60;;
66663;SDS011;59683;51.428;-1.994;2023-06-26T14:38:22;3.90;;;0.80;;
66663;SDS011;59683;51.428;-1.994;2023-06-26T14:40:47;7.07;;;0.68;;
66663;SDS011;59683;51.428;-1.994;2023-06-26T14:43:13;5.20;;;0.65;;
66663;SDS011;59683;51.428;-1.994;2023-06-26T14:45:38;4.95;;;0.93;;
66663;SDS011;59683;51.428;-1.994;2023-06-26T14:48:04;4.82;;;1.30;;
66663;SDS011;59683;51.428;-1.994;2023-06-26T14:50:29;1.75;;;0.68;;
66663;SDS011;59683;51.428;-1.994;2023-06-26T14:52:55;2.60;;;0.40;;
66663;SDS011;59683;51.428;-1.994;2023-06-26T14:55:20;5.70;;;0.52;;
66663;SDS011;59683;51.428;-1.994;2023-06-26T14:57:46;4.00;;;0.73;;
66663;SDS011;59683;51.428;-1.994;2023-06-26T15:00:11;4.15;;;0.60;;
66663;SDS011;59683;51.428;-1.994;2023-06-26T15:02:37;3.80;;;0.70;;
66663;SDS011;59683;51.428;-1.994;2023-06-26T15:05:02;4.65;;;0.68;;
66663;SDS011;59683;51.428;-1.994;2023-06-26T15:07:28;2.35;;;0.68;;
66663;SDS011;59683;51.428;-1.994;2023-06-26T15:09:53;4.13;;;0.70;;
66663;SDS011;59683;51.428;-1.994;2023-06-26T15:12:19;3.30;;;0.50;;
66663;SDS011;59683;51.428;-1.994;2023-06-26T15:14:47;2.72;;;0.82;;
66663;SDS011;59683;51.428;-1.994;2023-06-26T15:17:13;3.90;;;0.57;;
66663;SDS011;59683;51.428;-1.994;2023-06-26T15:19:38;2.97;;;0.68;;
66663;SDS011;59683;51.428;-1.994;2023-06-26T15:22:04;4.90;;;0.77;;
66663;SDS011;59683;51.428;-1.994;2023-06-26T15:24:29;4.63;;;0.70;;
66663;SDS011;59683;51.428;-1.994;2023-06-26T15:26:55;4.53;;;0.50;;
66663;SDS011;59683;51.428;-1.994;2023-06-26T15:29:21;4.97;;;0.93;;
66663;SDS011;59683;51.428;-1.994;2023-06-26T15:31:46;5.97;;;0.60;;
66663;SDS011;59683;51.428;-1.994;2023-06-26T15:34:12;6.50;;;0.60;;
66663;SDS011;59683;51.428;-1.994;2023-06-26T15:36:38;2.33;;;0.60;;
66663;SDS011;59683;51.428;-1.994;2023-06-26T15:39:04;3.53;;;0.88;;
66663;SDS011;59683;51.428;-1.994;2023-06-26T15:41:29;4.20;;;0.70;;
66663;SDS011;59683;51.428;-1.994;2023-06-26T15:43:54;3.95;;;1.05;;
66663;SDS011;59683;51.428;-1.994;2023-06-26T15:46:20;3.85;;;0.50;;
66663;SDS011;59683;51.428;-1.994;2023-06-26T15:48:45;4.22;;;1.13;;
66663;SDS011;59683;51.428;-1.994;2023-06-26T15:51:12;5.38;;;0.57;;
66663;SDS011;59683;51.428;-1.994;2023-06-26T15:53:38;3.20;;;0.40;;
66663;SDS011;59683;51.428;-1.994;2023-06-26T15:56:10;2.85;;;0.60;;
66663;SDS011;59683;51.428;-1.994;2023-06-26T15:58:37;3.80;;;0.45;;
66663;SDS011;59683;51.428;-1.994;2023-06-26T16:01:11;4.18;;;0.60;;
66663;SDS011;59683;51.428;-1.994;2023-06-26T16:03:37;3.97;;;0.60;;
66663;SDS011;59683;51.428;-1.994;2023-06-26T16:06:03;2.22;;;0.63;;
66663;SDS011;59683;51.428;-1.994;2023-06-26T16:08:29;2.28;;;0.70;;
66663;SDS011;59683;51.428;-1.994;2023-06-26T16:10:54;2.33;;;0.63;;
66663;SDS011;59683;51.428;-1.994;2023-06-26T16:13:20;4.15;;;0.60;;
66663;SDS011;59683;51.428;-1.994;2023-06-26T16:15:47;6.40;;;0.88;;
66663;SDS011;59683;51.428;-1.994;2023-06-26T16:18:12;4.13;;;0.95;;
66663;SDS011;59683;51.428;-1.994;2023-06-26T16:20:38;3.53;;;0.57;;
66663;SDS011;59683;51.428;-1.994;2023-06-26T16:23:03;2.28;;;0.82;;
66663;SDS011;59683;51.428;-1.994;2023-06-26T16:25:29;3.58;;;0.65;;
66663;SDS011;59683;51.428;-1.994;2023-06-26T16:27:54;4.10;;;0.70;;
66663;SDS011;59683;51.428;-1.994;2023-06-26T16:30:19;4.68;;;0.55;;
66663;SDS011;59683;51.428;-1.994;2023-06-26T16:32:46;2.67;;;0.75;;
66663;SDS011;59683;51.428;-1.994;2023-06-26T16:35:11;2.40;;;0.70;;
66663;SDS011;59683;51.428;-1.994;2023-06-26T16:37:36;3.30;;;0.50;;
66663;SDS011;59683;51.428;-1.994;2023-06-26T16:40:02;2.83;;;0.60;;
66663;SDS011;59683;51.428;-1.994;2023-06-26T16:42:28;4.50;;;0.80;;
66663;SDS011;59683;51.428;-1.994;2023-06-26T16:44:54;3.47;;;0.57;;
66663;SDS011;59683;51.428;-1.994;2023-06-26T16:47:20;4.78;;;0.85;;
66663;SDS011;59683;51.428;-1.994;2023-06-26T16:49:45;6.57;;;1.25;;
66663;SDS011;59683;51.428;-1.994;2023-06-26T16:52:11;4.80;;;0.57;;
66663;SDS011;59683;51.428;-1.994;2023-06-26T16:54:37;4.60;;;0.77;;
66663;SDS011;59683;51.428;-1.994;2023-06-26T16:57:02;4.60;;;0.83;;
66663;SDS011;59683;51.428;-1.994;2023-06-26T16:59:28;2.83;;;0.60;;
66663;SDS011;59683;51.428;-1.994;2023-06-26T17:01:54;2.60;;;0.87;;
66663;SDS011;59683;51.428;-1.994;2023-06-26T17:04:22;6.20;;;1.00;;
66663;SDS011;59683;51.428;-1.994;2023-06-26T17:06:47;7.93;;;1.27;;
66663;SDS011;59683;51.428;-1.994;2023-06-26T17:09:13;4.17;;;0.90;;
66663;SDS011;59683;51.428;-1.994;2023-06-26T17:11:38;4.73;;;0.63;;
66663;SDS011;59683;51.428;-1.994;2023-06-26T17:14:06;6.20;;;1.20;;
66663;SDS011;59683;51.428;-1.994;2023-06-26T17:16:32;5.87;;;0.70;;
66663;SDS011;59683;51.428;-1.994;2023-06-26T17:18:58;3.77;;;0.80;;
66663;SDS011;59683;51.428;-1.994;2023-06-26T17:21:24;3.87;;;0.73;;
66663;SDS011;59683;51.428;-1.994;2023-06-26T17:23:53;7.17;;;0.80;;
66663;SDS011;59683;51.428;-1.994;2023-06-26T17:26:22;5.67;;;1.30;;
66663;SDS011;59683;51.428;-1.994;2023-06-26T17:28:52;6.53;;;1.10;;
66663;SDS011;59683;51.428;-1.994;2023-06-26T17:31:18;6.23;;;1.00;;
66663;SDS011;59683;51.428;-1.994;2023-06-26T17:33:44;5.13;;;1.00;;
66663;SDS011;59683;51.428;-1.994;2023-06-26T17:36:10;5.80;;;0.80;;
66663;SDS011;59683;51.428;-1.994;2023-06-26T17:38:36;7.17;;;0.97;;
66663;SDS011;59683;51.428;-1.994;2023-06-26T17:41:05;5.07;;;1.20;;
66663;SDS011;59683;51.428;-1.994;2023-06-26T17:43:30;5.67;;;0.87;;
66663;SDS011;59683;51.428;-1.994;2023-06-26T17:45:56;13.27;;;2.30;;
66663;SDS011;59683;51.428;-1.994;2023-06-26T17:48:21;5.10;;;1.07;;
66663;SDS011;59683;51.428;-1.994;2023-06-26T17:50:47;6.07;;;0.87;;
66663;SDS011;59683;51.428;-1.994;2023-06-26T17:53:14;6.37;;;1.33;;
66663;SDS011;59683;51.428;-1.994;2023-06-26T17:55:40;7.47;;;1.87;;
66663;SDS011;59683;51.428;-1.994;2023-06-26T17:58:05;5.83;;;1.30;;
66663;SDS011;59683;51.428;-1.994;2023-06-26T18:00:30;8.17;;;1.07;;
66663;SDS011;59683;51.428;-1.994;2023-06-26T18:02:56;4.47;;;0.80;;
66663;SDS011;59683;51.428;-1.994;2023-06-26T18:05:31;4.00;;;0.87;;
66663;SDS011;59683;51.428;-1.994;2023-06-26T18:07:57;4.90;;;0.80;;
66663;SDS011;59683;51.428;-1.994;2023-06-26T18:10:23;3.57;;;0.83;;
66663;SDS011;59683;51.428;-1.994;2023-06-26T18:12:48;9.03;;;1.27;;
66663;SDS011;59683;51.428;-1.994;2023-06-26T18:15:21;4.53;;;1.07;;
66663;SDS011;59683;51.428;-1.994;2023-06-26T18:17:46;4.00;;;0.75;;
66663;SDS011;59683;51.428;-1.994;2023-06-26T18:20:12;5.07;;;0.90;;
66663;SDS011;59683;51.428;-1.994;2023-06-26T18:22:37;4.07;;;1.07;;
66663;SDS011;59683;51.428;-1.994;2023-06-26T18:25:03;5.87;;;1.20;;
66663;SDS011;59683;51.428;-1.994;2023-06-26T18:27:32;4.90;;;1.07;;
66663;SDS011;59683;51.428;-1.994;2023-06-26T18:29:59;13.35;;;1.52;;
66663;SDS011;59683;51.428;-1.994;2023-06-26T18:32:25;8.10;;;1.20;;
66663;SDS011;59683;51.428;-1.994;2023-06-26T18:34:50;6.03;;;1.63;;
66663;SDS011;59683;51.428;-1.994;2023-06-26T18:37:17;6.00;;;1.30;;
66663;SDS011;59683;51.428;-1.994;2023-06-26T18:39:42;4.27;;;0.70;;
66663;SDS011;59683;51.428;-1.994;2023-06-26T18:42:08;5.00;;;0.77;;
66663;SDS011;59683;51.428;-1.994;2023-06-26T18:44:33;7.23;;;0.90;;
